Time;durP1;ratioP1;P1;durP2;ratioP2;P2;SDS_P1;SDS_P2;PMS_P1;PMS_P2;Temp;Humidity;BMP_temperature;BMP_pressure;BME280_temperature;BME280_humidity;BME280_pressure;Samples;Min_cycle;Max_cycle;Signal;HPM_P1;HPM_P2
2023/04/24 00:00:44;;;;;;;4.30;4.10;;;;;;;;;;5044804;28;20107;-72
2023/04/24 00:03:10;;;;;;;4.10;3.83;;;;;;;;;;5048058;28;20032;-72
2023/04/24 00:05:36;;;;;;;4.28;3.97;;;;;;;;;;5048459;28;20608;-72
2023/04/24 00:08:02;;;;;;;4.72;4.00;;;;;;;;;;5046946;28;20033;-72
2023/04/24 00:10:27;;;;;;;4.25;3.95;;;;;;;;;;5047356;28;20088;-72
2023/04/24 00:12:53;;;;;;;4.13;3.92;;;;;;;;;;5044254;28;20120;-72
2023/04/24 00:15:18;;;;;;;4.30;3.90;;;;;;;;;;5053866;28;20090;-72
2023/04/24 00:17:44;;;;;;;4.07;3.80;;;;;;;;;;5051764;28;20592;-73
2023/04/24 00:20:10;;;;;;;4.07;3.85;;;;;;;;;;5049077;28;20032;-72
2023/04/24 00:22:36;;;;;;;5.05;3.95;;;;;;;;;;5048619;28;20104;-73
2023/04/24 00:25:01;;;;;;;4.30;4.00;;;;;;;;;;5052048;28;20120;-73
2023/04/24 00:27:27;;;;;;;4.53;4.10;;;;;;;;;;5049804;28;20039;-72
2023/04/24 00:29:53;;;;;;;4.47;4.18;;;;;;;;;;5045673;28;20071;-73
2023/04/24 00:32:18;;;;;;;5.22;4.70;;;;;;;;;;5049037;28;20072;-73
2023/04/24 00:34:44;;;;;;;4.57;4.28;;;;;;;;;;5053108;28;20032;-73
2023/04/24 00:37:10;;;;;;;4.40;4.10;;;;;;;;;;5048005;28;20048;-73
2023/04/24 00:39:36;;;;;;;4.57;4.28;;;;;;;;;;5042100;28;20037;-72
2023/04/24 00:42:02;;;;;;;4.53;4.22;;;;;;;;;;5051862;28;20219;-73
2023/04/24 00:44:27;;;;;;;4.40;4.10;;;;;;;;;;5045885;28;20029;-72
2023/04/24 00:46:54;;;;;;;4.45;4.15;;;;;;;;;;5046804;28;20037;-72
2023/04/24 00:49:23;;;;;;;4.00;3.80;;;;;;;;;;5047534;28;20029;-72
2023/04/24 00:51:50;;;;;;;3.90;3.70;;;;;;;;;;5048886;28;20346;-72
2023/04/24 00:54:17;;;;;;;4.30;3.80;;;;;;;;;;5047261;28;20079;-72
2023/04/24 00:56:44;;;;;;;4.07;3.88;;;;;;;;;;5044721;28;20044;-73
2023/04/24 00:59:11;;;;;;;4.40;4.00;;;;;;;;;;5047856;28;20044;-72
2023/04/24 01:01:41;;;;;;;4.50;4.10;;;;;;;;;;5042071;28;20036;-72
2023/04/24 01:04:09;;;;;;;4.38;4.05;;;;;;;;;;5041732;28;20041;-72
2023/04/24 01:06:38;;;;;;;4.47;4.18;;;;;;;;;;5043329;28;20047;-71
2023/04/24 01:09:04;;;;;;;7.57;4.20;;;;;;;;;;5042624;28;20090;-72
2023/04/24 01:11:30;;;;;;;4.60;4.20;;;;;;;;;;5042044;28;20040;-71
2023/04/24 01:13:56;;;;;;;4.60;4.20;;;;;;;;;;5041817;28;20033;-72
2023/04/24 01:16:22;;;;;;;4.15;3.95;;;;;;;;;;5044525;28;20037;-71
2023/04/24 01:18:48;;;;;;;4.15;3.92;;;;;;;;;;5050687;28;20048;-72
2023/04/24 01:21:18;;;;;;;4.45;4.05;;;;;;;;;;5044264;28;20028;-71
2023/04/24 01:23:47;;;;;;;4.90;4.50;;;;;;;;;;5050539;28;20040;-71
2023/04/24 01:26:14;;;;;;;4.30;3.90;;;;;;;;;;5046829;28;20037;-73
2023/04/24 01:28:40;;;;;;;4.35;3.95;;;;;;;;;;5052724;28;20047;-73
2023/04/24 01:31:06;;;;;;;4.13;3.90;;;;;;;;;;5044133;28;20024;-73
2023/04/24 01:33:32;;;;;;;4.20;3.90;;;;;;;;;;5049538;28;20041;-73
2023/04/24 01:35:58;;;;;;;3.78;3.53;;;;;;;;;;5050892;28;20765;-73
2023/04/24 01:38:24;;;;;;;4.15;3.95;;;;;;;;;;5043504;28;20063;-73
2023/04/24 01:40:50;;;;;;;3.90;3.70;;;;;;;;;;5048949;28;20076;-73
2023/04/24 01:43:17;;;;;;;4.00;3.70;;;;;;;;;;5047387;28;20031;-73
2023/04/24 01:45:43;;;;;;;4.13;3.85;;;;;;;;;;5047999;28;20111;-72
2023/04/24 01:48:09;;;;;;;4.15;3.80;;;;;;;;;;5042871;28;20127;-73
2023/04/24 01:50:34;;;;;;;4.30;3.90;;;;;;;;;;5049473;28;20036;-72
2023/04/24 01:53:00;;;;;;;4.00;3.70;;;;;;;;;;5043434;28;20042;-71
2023/04/24 01:55:27;;;;;;;4.15;3.75;;;;;;;;;;5050112;28;20043;-72
2023/04/24 01:57:55;;;;;;;4.32;4.05;;;;;;;;;;5048406;28;20028;-74
2023/04/24 02:00:21;;;;;;;4.55;4.05;;;;;;;;;;5054378;28;20366;-75
2023/04/24 02:02:47;;;;;;;4.50;4.10;;;;;;;;;;5054193;28;20389;-75
2023/04/24 02:05:13;;;;;;;4.63;3.85;;;;;;;;;;5050958;28;20091;-75
2023/04/24 02:07:38;;;;;;;3.72;3.53;;;;;;;;;;5052668;28;20044;-73
2023/04/24 02:10:05;;;;;;;4.18;3.88;;;;;;;;;;5051112;28;20033;-73
2023/04/24 02:12:31;;;;;;;4.28;3.90;;;;;;;;;;5048489;28;20112;-73
2023/04/24 02:14:57;;;;;;;3.88;3.67;;;;;;;;;;5049579;28;20104;-74
2023/04/24 02:17:23;;;;;;;4.32;4.00;;;;;;;;;;5052912;28;20072;-74
2023/04/24 02:19:48;;;;;;;4.47;4.00;;;;;;;;;;5054913;28;20033;-73
2023/04/24 02:22:14;;;;;;;3.90;3.70;;;;;;;;;;5049799;28;20032;-74
2023/04/24 02:24:39;;;;;;;5.40;3.80;;;;;;;;;;5046534;28;20066;-73
2023/04/24 02:27:06;;;;;;;4.10;3.80;;;;;;;;;;5043239;28;20128;-73
2023/04/24 02:29:31;;;;;;;3.92;3.63;;;;;;;;;;5052549;28;20119;-74
2023/04/24 02:31:57;;;;;;;5.05;3.53;;;;;;;;;;5048457;28;20121;-74
2023/04/24 02:34:23;;;;;;;4.05;3.50;;;;;;;;;;5043508;28;20037;-74
2023/04/24 02:36:49;;;;;;;3.75;3.50;;;;;;;;;;5052019;28;20041;-74
2023/04/24 02:39:16;;;;;;;4.47;4.00;;;;;;;;;;5052750;28;20036;-74
2023/04/24 02:41:42;;;;;;;3.88;3.58;;;;;;;;;;5050476;28;20044;-74
2023/04/24 02:44:08;;;;;;;4.00;3.80;;;;;;;;;;5048509;28;20029;-74
2023/04/24 02:46:34;;;;;;;4.32;3.90;;;;;;;;;;5050367;28;20079;-74
2023/04/24 02:49:00;;;;;;;4.53;4.22;;;;;;;;;;5053979;28;20126;-74
2023/04/24 02:51:26;;;;;;;3.92;3.55;;;;;;;;;;5057110;28;20033;-75
2023/04/24 02:53:52;;;;;;;3.70;3.50;;;;;;;;;;5049483;28;20037;-75
2023/04/24 02:56:18;;;;;;;4.18;3.85;;;;;;;;;;5050485;28;20029;-73
2023/04/24 02:58:44;;;;;;;4.10;3.80;;;;;;;;;;5052980;28;20078;-74
2023/04/24 03:01:09;;;;;;;4.05;3.75;;;;;;;;;;5049928;28;20033;-73
2023/04/24 03:03:36;;;;;;;4.30;4.03;;;;;;;;;;5044314;28;20029;-75
2023/04/24 03:06:02;;;;;;;6.53;4.10;;;;;;;;;;5052243;28;20040;-74
2023/04/24 03:08:27;;;;;;;4.30;3.90;;;;;;;;;;5046961;28;20045;-74
2023/04/24 03:10:53;;;;;;;4.10;3.90;;;;;;;;;;5047771;28;20033;-73
2023/04/24 03:13:19;;;;;;;4.43;4.05;;;;;;;;;;5047742;28;20450;-72
2023/04/24 03:15:46;;;;;;;4.10;3.90;;;;;;;;;;5052620;28;20119;-73
2023/04/24 03:18:11;;;;;;;5.70;4.40;;;;;;;;;;5049903;28;20056;-73
2023/04/24 03:20:37;;;;;;;4.53;4.13;;;;;;;;;;5051372;28;20036;-74
2023/04/24 03:23:03;;;;;;;4.47;4.18;;;;;;;;;;5041792;28;20037;-74
2023/04/24 03:25:29;;;;;;;5.25;4.13;;;;;;;;;;5053314;28;20064;-74
2023/04/24 03:27:55;;;;;;;4.20;4.00;;;;;;;;;;5041422;28;20037;-74
2023/04/24 03:30:36;;;;;;;4.32;3.92;;;;;;;;;;5049792;28;20119;-74
2023/04/24 03:33:04;;;;;;;4.00;3.80;;;;;;;;;;5044721;28;20041;-73
2023/04/24 03:35:33;;;;;;;3.97;3.67;;;;;;;;;;5053740;28;20791;-73
2023/04/24 03:38:04;;;;;;;4.53;4.15;;;;;;;;;;5045660;28;20041;-73
2023/04/24 03:40:49;;;;;;;4.35;4.05;;;;;;;;;;5048410;28;20086;-73
2023/04/24 03:43:29;;;;;;;;;;;;;;;;;;5049001;28;20041;-73
2023/04/24 03:45:57;;;;;;;4.20;3.90;;;;;;;;;;5049525;28;19917;-74
2023/04/24 03:48:24;;;;;;;5.13;4.07;;;;;;;;;;5052850;28;20108;-74
2023/04/24 03:50:50;;;;;;;4.60;4.20;;;;;;;;;;5048342;28;20064;-74
2023/04/24 03:53:16;;;;;;;4.10;3.83;;;;;;;;;;5051670;28;20060;-74
2023/04/24 03:55:42;;;;;;;5.68;4.28;;;;;;;;;;5049739;28;20087;-73
2023/04/24 03:58:09;;;;;;;4.18;3.88;;;;;;;;;;5052378;28;20078;-74
2023/04/24 04:00:34;;;;;;;4.30;4.00;;;;;;;;;;5044959;28;20467;-74
2023/04/24 04:03:20;;;;;;;4.13;3.70;;;;;;;;;;5048301;28;20040;-74
2023/04/24 04:05:46;;;;;;;4.05;3.85;;;;;;;;;;5052797;28;20028;-75
2023/04/24 04:08:12;;;;;;;4.53;4.20;;;;;;;;;;5041699;28;20115;-74
2023/04/24 04:10:37;;;;;;;4.18;3.90;;;;;;;;;;5051766;28;20443;-74
2023/04/24 04:13:04;;;;;;;4.90;4.15;;;;;;;;;;5049165;28;20148;-74
2023/04/24 04:15:30;;;;;;;4.32;4.00;;;;;;;;;;5048155;28;20045;-74
2023/04/24 04:17:56;;;;;;;4.75;4.25;;;;;;;;;;5049017;28;20047;-74
2023/04/24 04:20:22;;;;;;;4.60;4.18;;;;;;;;;;5047509;28;20037;-74
2023/04/24 04:22:48;;;;;;;4.82;4.10;;;;;;;;;;5051251;28;20033;-74
2023/04/24 04:25:19;;;;;;;4.50;4.10;;;;;;;;;;5047453;28;20107;-74
2023/04/24 04:27:47;;;;;;;4.80;4.40;;;;;;;;;;5048181;28;20116;-74
2023/04/24 04:30:13;;;;;;;4.72;4.22;;;;;;;;;;5046982;28;20732;-74
2023/04/24 04:32:56;;;;;;;4.22;3.92;;;;;;;;;;5049396;28;20032;-73
2023/04/24 04:35:21;;;;;;;4.40;4.00;;;;;;;;;;5046563;28;20025;-74
2023/04/24 04:37:47;;;;;;;4.60;4.20;;;;;;;;;;5045985;28;20103;-73
2023/04/24 04:40:33;;;;;;;4.80;4.50;;;;;;;;;;5026467;28;20070;-75
2023/04/24 04:43:03;;;;;;;4.57;4.28;;;;;;;;;;5048559;28;20034;-74
2023/04/24 04:45:34;;;;;;;4.70;4.40;;;;;;;;;;5041351;28;20527;-76
2023/04/24 04:48:18;;;;;;;7.97;5.20;;;;;;;;;;5044024;28;20041;-73
2023/04/24 04:50:45;;;;;;;5.78;5.47;;;;;;;;;;5047279;28;20036;-73
2023/04/24 04:53:10;;;;;;;5.95;5.55;;;;;;;;;;5049267;28;20037;-74
2023/04/24 04:55:37;;;;;;;5.95;5.55;;;;;;;;;;5045568;28;20036;-73
2023/04/24 04:58:10;;;;;;;6.22;5.75;;;;;;;;;;5049120;28;20033;-74
2023/04/24 05:00:37;;;;;;;5.97;5.57;;;;;;;;;;5052947;28;20036;-73
2023/04/24 05:03:08;;;;;;;5.72;5.32;;;;;;;;;;5042257;28;20021;-72
2023/04/24 05:05:34;;;;;;;5.90;5.50;;;;;;;;;;5044833;28;20509;-72
2023/04/24 05:07:59;;;;;;;6.30;5.80;;;;;;;;;;5048539;28;20044;-73
2023/04/24 05:10:25;;;;;;;6.13;5.68;;;;;;;;;;5043689;28;20069;-72
2023/04/24 05:12:53;;;;;;;6.57;6.00;;;;;;;;;;5039712;28;20127;-71
2023/04/24 05:15:19;;;;;;;5.97;5.57;;;;;;;;;;5042907;28;20120;-71
2023/04/24 05:17:45;;;;;;;7.18;6.57;;;;;;;;;;5045138;28;20511;-71
2023/04/24 05:20:12;;;;;;;7.20;6.70;;;;;;;;;;5044532;28;20124;-71
2023/04/24 05:22:38;;;;;;;6.38;5.97;;;;;;;;;;5041608;28;20037;-71
2023/04/24 05:25:04;;;;;;;6.80;6.30;;;;;;;;;;5041909;28;20033;-72
2023/04/24 05:27:48;;;;;;;6.15;5.75;;;;;;;;;;5044162;28;20377;-72
2023/04/24 05:30:15;;;;;;;6.75;6.18;;;;;;;;;;5044348;28;20041;-71
2023/04/24 05:32:41;;;;;;;6.22;5.82;;;;;;;;;;5042044;28;20099;-71
2023/04/24 05:35:07;;;;;;;6.60;6.00;;;;;;;;;;5044729;28;20033;-71
2023/04/24 05:37:33;;;;;;;5.95;5.55;;;;;;;;;;5045975;28;20040;-71
2023/04/24 05:39:58;;;;;;;5.82;5.43;;;;;;;;;;5043027;28;20112;-71
2023/04/24 05:42:24;;;;;;;6.40;5.90;;;;;;;;;;5044108;28;20033;-72
2023/04/24 05:44:50;;;;;;;5.70;5.32;;;;;;;;;;5044659;28;20037;-71
2023/04/24 05:47:16;;;;;;;6.00;5.60;;;;;;;;;;5046789;28;20035;-71
2023/04/24 05:49:42;;;;;;;5.82;5.32;;;;;;;;;;5043870;28;20512;-71
2023/04/24 05:52:08;;;;;;;5.63;5.28;;;;;;;;;;5043097;28;20044;-71
2023/04/24 05:54:35;;;;;;;6.32;5.75;;;;;;;;;;5042471;28;20033;-71
2023/04/24 05:57:07;;;;;;;6.75;5.95;;;;;;;;;;5044505;28;20040;-71
2023/04/24 05:59:45;;;;;;;5.90;5.40;;;;;;;;;;5040507;28;20124;-71
2023/04/24 06:02:12;;;;;;;5.88;5.43;;;;;;;;;;5045583;28;20371;-71
2023/04/24 06:04:37;;;;;;;6.40;5.65;;;;;;;;;;5045680;28;20087;-71
2023/04/24 06:07:03;;;;;;;6.05;5.60;;;;;;;;;;5044578;28;20037;-71
2023/04/24 06:09:29;;;;;;;6.47;5.97;;;;;;;;;;5041300;28;20221;-71
2023/04/24 06:11:56;;;;;;;6.32;5.72;;;;;;;;;;5045631;28;20032;-71
2023/04/24 06:14:27;;;;;;;6.60;5.90;;;;;;;;;;5042021;28;20037;-71
2023/04/24 06:17:19;;;;;;;6.38;5.80;;;;;;;;;;5040151;28;20051;-71
2023/04/24 06:19:45;;;;;;;6.78;6.15;;;;;;;;;;5044548;28;20080;-71
2023/04/24 06:22:11;;;;;;;6.72;6.15;;;;;;;;;;5044341;28;20056;-71
2023/04/24 06:24:36;;;;;;;6.10;5.70;;;;;;;;;;5042723;28;20044;-71
2023/04/24 06:27:02;;;;;;;7.45;6.78;;;;;;;;;;5041909;28;20028;-71
2023/04/24 06:29:28;;;;;;;6.75;6.28;;;;;;;;;;5044818;28;20029;-71
2023/04/24 06:31:53;;;;;;;6.63;6.13;;;;;;;;;;5044024;28;20090;-71
2023/04/24 06:34:19;;;;;;;6.15;5.65;;;;;;;;;;5042400;28;20037;-71
2023/04/24 06:36:46;;;;;;;7.88;5.78;;;;;;;;;;5042120;28;20028;-71
2023/04/24 06:39:12;;;;;;;6.38;5.95;;;;;;;;;;5043595;28;20024;-71
2023/04/24 06:41:38;;;;;;;6.65;6.15;;;;;;;;;;5045658;28;20063;-71
2023/04/24 06:44:03;;;;;;;5.95;5.55;;;;;;;;;;5046258;28;20038;-71
2023/04/24 06:46:29;;;;;;;6.82;6.20;;;;;;;;;;5048821;28;20037;-71
2023/04/24 06:48:57;;;;;;;9.93;5.70;;;;;;;;;;5047265;28;20104;-72
2023/04/24 06:51:24;;;;;;;6.00;5.60;;;;;;;;;;5049346;28;20579;-72
2023/04/24 06:53:51;;;;;;;6.32;5.82;;;;;;;;;;5049493;28;21693;-72
2023/04/24 06:56:16;;;;;;;5.60;5.20;;;;;;;;;;5047387;28;20029;-71
2023/04/24 06:58:42;;;;;;;5.75;5.35;;;;;;;;;;5043871;28;20033;-71
2023/04/24 07:01:07;;;;;;;5.70;5.30;;;;;;;;;;5049349;28;20490;-71
2023/04/24 07:03:33;;;;;;;5.78;5.05;;;;;;;;;;5049321;28;20052;-72
2023/04/24 07:05:58;;;;;;;8.05;5.90;;;;;;;;;;5049278;28;20062;-71
2023/04/24 07:08:25;;;;;;;6.57;5.53;;;;;;;;;;5045957;28;20090;-71
2023/04/24 07:10:51;;;;;;;5.35;4.85;;;;;;;;;;5049190;28;20037;-71
2023/04/24 07:13:17;;;;;;;5.70;5.20;;;;;;;;;;5023100;22;20101;-65
2023/04/24 07:15:43;;;;;;;5.82;5.43;;;;;;;;;;4977693;28;20035;-64
2023/04/24 07:18:08;;;;;;;5.15;4.85;;;;;;;;;;4970415;28;20034;-64
2023/04/24 07:20:34;;;;;;;5.55;5.15;;;;;;;;;;4970301;28;20054;-66
2023/04/24 07:23:00;;;;;;;5.53;5.10;;;;;;;;;;4980118;28;20073;-66
2023/04/24 07:25:25;;;;;;;6.13;5.63;;;;;;;;;;4990978;28;20038;-65
2023/04/24 07:27:52;;;;;;;5.55;5.15;;;;;;;;;;4989074;28;20437;-65
2023/04/24 07:30:17;;;;;;;5.53;5.13;;;;;;;;;;4985236;28;20114;-65
2023/04/24 07:32:43;;;;;;;5.20;4.80;;;;;;;;;;4998332;28;20042;-65
2023/04/24 07:35:09;;;;;;;5.88;5.30;;;;;;;;;;4990468;28;20116;-65
2023/04/24 07:37:35;;;;;;;5.55;5.18;;;;;;;;;;4988299;28;20065;-65
2023/04/24 07:40:01;;;;;;;5.35;5.05;;;;;;;;;;4988645;28;20022;-65
2023/04/24 07:42:27;;;;;;;5.05;4.75;;;;;;;;;;4987621;28;20401;-65
2023/04/24 07:44:53;;;;;;;5.28;4.95;;;;;;;;;;4989406;28;20049;-65
2023/04/24 07:47:19;;;;;;;5.60;5.10;;;;;;;;;;4990090;28;20030;-65
2023/04/24 07:49:44;;;;;;;4.95;4.65;;;;;;;;;;4995890;28;20042;-65
2023/04/24 07:52:10;;;;;;;6.85;6.20;;;;;;;;;;4984794;28;20477;-65
2023/04/24 07:54:37;;;;;;;5.22;4.93;;;;;;;;;;4982434;28;20033;-63
2023/04/24 07:57:03;;;;;;;5.70;5.20;;;;;;;;;;4994126;28;20389;-64
2023/04/24 07:59:28;;;;;;;4.93;4.63;;;;;;;;;;4986052;28;20038;-64
2023/04/24 08:01:54;;;;;;;5.45;5.05;;;;;;;;;;4985731;28;20118;-64
2023/04/24 08:04:20;;;;;;;4.90;4.60;;;;;;;;;;4985281;28;20053;-65
2023/04/24 08:06:47;;;;;;;4.82;4.53;;;;;;;;;;4981581;28;20025;-65
2023/04/24 08:09:13;;;;;;;4.60;4.30;;;;;;;;;;4984152;28;20045;-65
2023/04/24 08:11:38;;;;;;;4.35;4.05;;;;;;;;;;4982941;28;20227;-65
2023/04/24 08:14:04;;;;;;;4.63;4.22;;;;;;;;;;4982485;28;20042;-65
2023/04/24 08:16:30;;;;;;;4.70;4.40;;;;;;;;;;4987399;28;20046;-65
2023/04/24 08:18:55;;;;;;;5.10;4.53;;;;;;;;;;4998321;28;20542;-65
2023/04/24 08:21:21;;;;;;;4.43;4.22;;;;;;;;;;4990092;28;20544;-65
2023/04/24 08:23:47;;;;;;;4.43;4.18;;;;;;;;;;4988197;28;20038;-66
2023/04/24 08:26:13;;;;;;;3.95;3.67;;;;;;;;;;4992150;28;20042;-65
2023/04/24 08:28:38;;;;;;;4.22;3.67;;;;;;;;;;4986655;28;20446;-65
2023/04/24 08:31:04;;;;;;;4.15;3.85;;;;;;;;;;4984343;28;20049;-65
2023/04/24 08:33:34;;;;;;;4.30;3.90;;;;;;;;;;4985403;28;20121;-65
2023/04/24 08:36:05;;;;;;;5.28;4.78;;;;;;;;;;4989295;28;20454;-65
2023/04/24 08:38:31;;;;;;;4.55;4.25;;;;;;;;;;4981703;28;20100;-66
2023/04/24 08:40:59;;;;;;;4.40;4.20;;;;;;;;;;4991203;28;20503;-66
2023/04/24 08:43:25;;;;;;;4.55;4.18;;;;;;;;;;4982572;28;20224;-66
2023/04/24 08:45:52;;;;;;;4.72;4.32;;;;;;;;;;4987520;28;20038;-66
2023/04/24 08:48:18;;;;;;;5.63;4.57;;;;;;;;;;4979864;28;20023;-65
2023/04/24 08:50:44;;;;;;;4.60;4.30;;;;;;;;;;4988232;28;20108;-66
2023/04/24 08:53:10;;;;;;;4.72;4.40;;;;;;;;;;4999158;28;20558;-66
2023/04/24 08:55:37;;;;;;;4.70;4.40;;;;;;;;;;4988367;28;20030;-66
2023/04/24 08:58:03;;;;;;;4.82;4.45;;;;;;;;;;4986670;28;20088;-66
2023/04/24 09:00:30;;;;;;;4.75;4.40;;;;;;;;;;4988823;28;20046;-66
2023/04/24 09:02:56;;;;;;;4.63;4.32;;;;;;;;;;4988608;28;20163;-65
2023/04/24 09:05:23;;;;;;;4.55;4.25;;;;;;;;;;4982515;28;20047;-65
2023/04/24 09:08:00;;;;;;;8.25;4.85;;;;;;;;;;4985409;28;20066;-65
2023/04/24 09:10:26;;;;;;;5.88;4.57;;;;;;;;;;4991013;28;20045;-65
2023/04/24 09:12:52;;;;;;;4.75;4.45;;;;;;;;;;4987091;28;20038;-65
2023/04/24 09:15:21;;;;;;;5.38;4.95;;;;;;;;;;4987666;28;20049;-65
2023/04/24 09:17:47;;;;;;;4.50;4.20;;;;;;;;;;4988159;28;20031;-66
2023/04/24 09:20:12;;;;;;;5.50;5.00;;;;;;;;;;4989970;28;20042;-65
2023/04/24 09:22:38;;;;;;;4.75;4.40;;;;;;;;;;4985767;28;20038;-66
2023/04/24 09:25:07;;;;;;;4.65;4.35;;;;;;;;;;4984858;28;20146;-66
2023/04/24 09:27:35;;;;;;;5.20;4.80;;;;;;;;;;4986376;28;20030;-67
2023/04/24 09:30:02;;;;;;;5.05;4.50;;;;;;;;;;4981249;28;20123;-66
2023/04/24 09:32:29;;;;;;;4.60;4.30;;;;;;;;;;4987228;28;20034;-66
2023/04/24 09:35:11;;;;;;;4.93;4.40;;;;;;;;;;4979623;28;20040;-66
2023/04/24 09:37:38;;;;;;;5.68;4.35;;;;;;;;;;4982714;28;20117;-65
2023/04/24 09:40:11;;;;;;;4.80;4.50;;;;;;;;;;4985097;28;20035;-66
2023/04/24 09:42:37;;;;;;;5.40;5.00;;;;;;;;;;4983519;28;20041;-66
2023/04/24 09:45:04;;;;;;;4.85;4.50;;;;;;;;;;4980798;28;20038;-66
2023/04/24 09:47:37;;;;;;;5.22;4.78;;;;;;;;;;4985698;28;20287;-66
2023/04/24 09:50:14;;;;;;;5.03;4.60;;;;;;;;;;4987697;28;20105;-66
2023/04/24 09:52:41;;;;;;;4.72;4.43;;;;;;;;;;4981087;28;20034;-66
2023/04/24 09:55:19;;;;;;;5.60;5.20;;;;;;;;;;4983213;28;20046;-66
2023/04/24 09:57:58;;;;;;;5.13;4.78;;;;;;;;;;4989299;28;20436;-66
2023/04/24 10:00:26;;;;;;;4.90;4.60;;;;;;;;;;4991603;28;20107;-66
2023/04/24 10:03:03;;;;;;;4.87;4.47;;;;;;;;;;4988333;28;20070;-66
2023/04/24 10:05:32;;;;;;;4.65;4.40;;;;;;;;;;4990130;28;20022;-66
2023/04/24 10:08:11;;;;;;;4.80;4.50;;;;;;;;;;4982332;28;20714;-66
2023/04/24 10:10:43;;;;;;;4.60;4.28;;;;;;;;;;4990206;28;20048;-66
2023/04/24 10:13:13;;;;;;;4.85;4.55;;;;;;;;;;4982203;28;20065;-66
2023/04/24 10:15:40;;;;;;;4.35;4.05;;;;;;;;;;4985942;28;20497;-66
2023/04/24 10:18:07;;;;;;;4.10;3.90;;;;;;;;;;4991297;28;20527;-66
2023/04/24 10:20:34;;;;;;;4.10;3.80;;;;;;;;;;4989540;28;20042;-66
2023/04/24 10:23:01;;;;;;;4.60;4.25;;;;;;;;;;4994495;28;20049;-66
2023/04/24 10:25:28;;;;;;;4.90;4.50;;;;;;;;;;4995292;28;20708;-66
2023/04/24 10:27:59;;;;;;;4.22;4.03;;;;;;;;;;4985987;28;20041;-66
2023/04/24 10:30:26;;;;;;;4.22;3.88;;;;;;;;;;4988801;28;20107;-66
2023/04/24 10:32:52;;;;;;;4.30;4.00;;;;;;;;;;4981401;28;20057;-66
2023/04/24 10:35:19;;;;;;;5.05;4.30;;;;;;;;;;4993835;28;20038;-67
2023/04/24 10:37:57;;;;;;;4.68;4.30;;;;;;;;;;4993047;28;20089;-67
2023/04/24 10:40:29;;;;;;;4.50;4.20;;;;;;;;;;4994844;28;20046;-66
2023/04/24 10:42:56;;;;;;;4.63;4.32;;;;;;;;;;4991998;28;20033;-66
2023/04/24 10:45:22;;;;;;;5.15;4.75;;;;;;;;;;5001280;28;20041;-66
2023/04/24 10:47:59;;;;;;;5.03;4.53;;;;;;;;;;4995828;28;20041;-66
2023/04/24 10:50:30;;;;;;;4.00;3.80;;;;;;;;;;4989233;28;20449;-65
2023/04/24 10:53:27;;;;;;;4.40;4.00;;;;;;;;;;4988885;28;20526;-66
2023/04/24 10:56:06;;;;;;;4.10;3.90;;;;;;;;;;4988628;28;20101;-66
2023/04/24 10:58:39;;;;;;;4.53;4.22;;;;;;;;;;4987985;28;20099;-66
2023/04/24 11:01:08;;;;;;;9.73;4.40;;;;;;;;;;4989494;28;20054;-66
2023/04/24 11:03:36;;;;;;;4.63;4.43;;;;;;;;;;4997015;28;20531;-66
2023/04/24 11:06:08;;;;;;;4.40;4.10;;;;;;;;;;4985484;28;20081;-66
2023/04/24 11:08:40;;;;;;;4.80;4.50;;;;;;;;;;4993797;28;20049;-66
2023/04/24 11:11:13;;;;;;;5.25;4.00;;;;;;;;;;4987021;28;20050;-66
2023/04/24 11:13:57;;;;;;;4.38;4.10;;;;;;;;;;4990707;28;20037;-66
2023/04/24 11:16:42;;;;;;;4.80;4.40;;;;;;;;;;4989926;28;20052;-66
2023/04/24 11:19:13;;;;;;;4.38;4.15;;;;;;;;;;4986318;28;20406;-66
2023/04/24 11:21:41;;;;;;;4.55;4.28;;;;;;;;;;4997201;28;20029;-66
2023/04/24 11:24:26;;;;;;;4.40;4.20;;;;;;;;;;4997272;28;20657;-66
2023/04/24 11:27:14;;;;;;;4.20;3.90;;;;;;;;;;4991109;28;20052;-66
2023/04/24 11:29:55;;;;;;;4.40;4.20;;;;;;;;;;4985620;28;20298;-66
2023/04/24 11:32:32;;;;;;;4.88;4.57;;;;;;;;;;4986962;28;20453;-66
2023/04/24 11:35:06;;;;;;;4.70;4.30;;;;;;;;;;4997126;28;20073;-66
2023/04/24 11:37:38;;;;;;;4.95;4.40;;;;;;;;;;4985109;28;20466;-66
2023/04/24 11:40:06;;;;;;;5.25;4.70;;;;;;;;;;4979349;28;20035;-66
2023/04/24 11:42:39;;;;;;;4.82;4.43;;;;;;;;;;4983837;28;20038;-66
2023/04/24 11:45:10;;;;;;;4.88;4.47;;;;;;;;;;4989554;28;20045;-66
2023/04/24 11:47:35;;;;;;;4.55;4.18;;;;;;;;;;4986286;28;20030;-66
2023/04/24 11:50:03;;;;;;;4.90;4.50;;;;;;;;;;4988218;28;20034;-66
2023/04/24 11:52:29;;;;;;;5.95;4.50;;;;;;;;;;4989439;28;20493;-66
2023/04/24 11:54:55;;;;;;;4.70;4.40;;;;;;;;;;4986579;28;20034;-66
2023/04/24 11:57:23;;;;;;;5.22;4.88;;;;;;;;;;4984495;28;20045;-66
2023/04/24 11:59:49;;;;;;;4.40;4.10;;;;;;;;;;4985017;28;20101;-66
2023/04/24 12:02:25;;;;;;;3.83;3.63;;;;;;;;;;4987202;28;20034;-66
2023/04/24 12:04:55;;;;;;;4.68;4.20;;;;;;;;;;4991440;28;20061;-66
2023/04/24 12:07:21;;;;;;;4.70;4.30;;;;;;;;;;4987233;28;20125;-66
2023/04/24 12:09:49;;;;;;;4.50;4.28;;;;;;;;;;4994797;28;20117;-66
2023/04/24 12:12:17;;;;;;;4.53;4.23;;;;;;;;;;4984727;28;20038;-67
2023/04/24 12:14:49;;;;;;;4.47;4.13;;;;;;;;;;4992376;28;20064;-67
2023/04/24 12:17:16;;;;;;;4.65;4.35;;;;;;;;;;4993381;28;20034;-66
2023/04/24 12:19:46;;;;;;;4.18;3.97;;;;;;;;;;4992979;28;20036;-66
2023/04/24 12:22:12;;;;;;;4.68;4.38;;;;;;;;;;4988619;28;20041;-66
2023/04/24 12:24:56;;;;;;;4.43;4.20;;;;;;;;;;4981780;28;20354;-66
2023/04/24 12:27:22;;;;;;;4.50;4.10;;;;;;;;;;4989889;28;20510;-66
2023/04/24 12:29:58;;;;;;;4.60;4.30;;;;;;;;;;4988532;28;20076;-66
2023/04/24 12:32:27;;;;;;;4.60;4.20;;;;;;;;;;4988578;28;20093;-66
2023/04/24 12:34:54;;;;;;;4.72;4.32;;;;;;;;;;4982438;28;20042;-66
2023/04/24 12:37:20;;;;;;;4.38;3.80;;;;;;;;;;4987949;28;20074;-65
2023/04/24 12:40:03;;;;;;;4.97;4.55;;;;;;;;;;4985073;28;20778;-65
2023/04/24 12:42:30;;;;;;;4.70;4.40;;;;;;;;;;4986254;28;20034;-65
2023/04/24 12:44:59;;;;;;;4.50;4.20;;;;;;;;;;4996025;28;20073;-66
2023/04/24 12:47:25;;;;;;;4.38;4.03;;;;;;;;;;4989866;28;20329;-65
2023/04/24 12:49:52;;;;;;;4.88;4.20;;;;;;;;;;4984150;28;20046;-65
2023/04/24 12:52:25;;;;;;;4.30;3.90;;;;;;;;;;4996386;28;20444;-65
2023/04/24 12:54:58;;;;;;;4.80;4.50;;;;;;;;;;4991654;28;20106;-66
2023/04/24 12:57:25;;;;;;;4.50;4.07;;;;;;;;;;4984895;28;20033;-66
2023/04/24 12:59:57;;;;;;;4.15;3.95;;;;;;;;;;4979678;28;20038;-65
2023/04/24 13:02:24;;;;;;;4.45;4.05;;;;;;;;;;4994675;28;20588;-66
2023/04/24 13:04:50;;;;;;;4.88;3.90;;;;;;;;;;4983709;28;20405;-66
2023/04/24 13:07:17;;;;;;;4.63;4.25;;;;;;;;;;4982888;28;20030;-66
2023/04/24 13:09:44;;;;;;;5.20;4.00;;;;;;;;;;4982564;28;20446;-66
2023/04/24 13:12:11;;;;;;;5.15;4.32;;;;;;;;;;4994118;28;20042;-65
2023/04/24 13:14:37;;;;;;;4.40;4.10;;;;;;;;;;4980999;28;20402;-65
2023/04/24 13:17:03;;;;;;;4.40;4.10;;;;;;;;;;4979880;28;20037;-65
2023/04/24 13:19:29;;;;;;;4.60;4.20;;;;;;;;;;4988280;28;20110;-65
2023/04/24 13:21:56;;;;;;;4.10;3.90;;;;;;;;;;4980673;28;20062;-65
2023/04/24 13:24:24;;;;;;;4.30;4.03;;;;;;;;;;4983956;28;20026;-65
2023/04/24 13:26:51;;;;;;;4.50;4.20;;;;;;;;;;4982368;28;20038;-65
2023/04/24 13:29:17;;;;;;;4.40;4.00;;;;;;;;;;4984509;28;20053;-65
2023/04/24 13:31:42;;;;;;;5.15;4.85;;;;;;;;;;4985623;28;20084;-65
2023/04/24 13:34:08;;;;;;;4.88;4.57;;;;;;;;;;4979470;28;20618;-65
2023/04/24 13:36:33;;;;;;;4.90;4.60;;;;;;;;;;4983528;28;20600;-65
2023/04/24 13:38:59;;;;;;;4.40;4.10;;;;;;;;;;4982343;28;20045;-65
2023/04/24 13:41:24;;;;;;;4.97;4.50;;;;;;;;;;4986286;28;20041;-65
2023/04/24 13:43:50;;;;;;;5.38;4.57;;;;;;;;;;4983710;28;20030;-65
2023/04/24 13:46:16;;;;;;;5.50;4.25;;;;;;;;;;4991412;28;20034;-65
2023/04/24 13:48:42;;;;;;;4.35;4.05;;;;;;;;;;4980318;28;20413;-65
2023/04/24 13:51:07;;;;;;;4.32;4.03;;;;;;;;;;4987177;28;20113;-65
2023/04/24 13:53:35;;;;;;;4.60;4.30;;;;;;;;;;4991120;28;20053;-65
2023/04/24 13:56:02;;;;;;;4.05;3.75;;;;;;;;;;4996756;28;20248;-66
2023/04/24 13:58:27;;;;;;;4.20;4.00;;;;;;;;;;4986982;28;20089;-66
2023/04/24 14:00:53;;;;;;;4.78;4.38;;;;;;;;;;4994454;28;20400;-65
2023/04/24 14:03:19;;;;;;;4.45;4.15;;;;;;;;;;5000688;28;20045;-65
2023/04/24 14:05:44;;;;;;;5.25;4.43;;;;;;;;;;4985556;28;20109;-65
2023/04/24 14:08:10;;;;;;;4.72;4.40;;;;;;;;;;4990585;28;20038;-65
2023/04/24 14:10:35;;;;;;;4.88;4.57;;;;;;;;;;4996438;28;20401;-65
2023/04/24 14:13:01;;;;;;;4.97;4.68;;;;;;;;;;4990866;28;20034;-66
2023/04/24 14:15:26;;;;;;;4.75;4.38;;;;;;;;;;4989559;28;20546;-66
2023/04/24 14:17:52;;;;;;;4.97;4.57;;;;;;;;;;4988548;28;20249;-66
2023/04/24 14:20:17;;;;;;;4.75;4.32;;;;;;;;;;4991456;28;20118;-66
2023/04/24 14:22:43;;;;;;;6.30;5.28;;;;;;;;;;4997053;28;20136;-66
2023/04/24 14:25:09;;;;;;;5.00;4.43;;;;;;;;;;4991524;28;20034;-66
2023/04/24 14:27:34;;;;;;;4.53;4.20;;;;;;;;;;4988361;28;20074;-66
2023/04/24 14:30:01;;;;;;;4.55;4.10;;;;;;;;;;4990765;28;20042;-66
2023/04/24 14:32:26;;;;;;;4.80;4.40;;;;;;;;;;4986969;28;20035;-66
2023/04/24 14:34:52;;;;;;;4.43;4.13;;;;;;;;;;4985466;28;20504;-66
2023/04/24 14:37:18;;;;;;;4.45;4.15;;;;;;;;;;4999154;28;20053;-66
2023/04/24 14:39:44;;;;;;;4.80;4.50;;;;;;;;;;4991789;28;20046;-66
2023/04/24 14:42:10;;;;;;;4.68;4.25;;;;;;;;;;4992291;28;20061;-66
2023/04/24 14:44:35;;;;;;;5.18;4.68;;;;;;;;;;4994313;28;20045;-66
2023/04/24 14:47:01;;;;;;;5.00;4.60;;;;;;;;;;4993227;28;20029;-66